Horncastle, United Kingdom
Current Conditions -  °F | °C
As of 7:50 AM on Friday 24 Oct 2014 (Local Time) from EGXC Reporting Station
Broken Clouds Broken Clouds  
Wind Chill: 55°   Ceiling: 3000
Heat Index: 55°   Visibility: 6mi
Dew Point: 54°   Wind: 12mph
Humidity: 94%   Direction: 200°SSW
Pressure: 29.88"   Gusts: NA
Location:  53.21°N, 0.12°W
Report Text: EGXC 240650Z 20010KT 9999 SCT023 BKN030 BKN110 13/12 Q1012 WHT TEMPO FEW023 BKN030 BLU
Loading
Personal Weather Stations






























Interactive Weather Map
Tropical Storm Tracking
New forecast layout! Learn more

10-Day Weather Forecast

Advertisements
Track Severe Weather on mobile